createdAt,value
2023-04-15T00:02:16.545Z,93.07
2023-04-15T00:04:44.441Z,92.53
2023-04-15T00:07:11.766Z,93.88
2023-04-15T00:09:39.272Z,92.70
2023-04-15T00:12:06.709Z,91.90
2023-04-15T00:14:35.832Z,92.14
2023-04-15T00:17:04.888Z,92.80
2023-04-15T00:19:32.873Z,93.51
2023-04-15T00:22:00.877Z,92.60
2023-04-15T00:24:28.450Z,92.45
2023-04-15T00:26:55.747Z,92.12
2023-04-15T00:29:23.357Z,91.98
2023-04-15T00:31:51.183Z,92.72
2023-04-15T00:34:20.404Z,91.62
2023-04-15T00:36:47.890Z,90.67
2023-04-15T00:39:16.486Z,90.60
2023-04-15T00:41:43.794Z,90.33
2023-04-15T00:44:11.662Z,90.87
2023-04-15T00:46:40.269Z,91.50
2023-04-15T00:49:08.235Z,91.60
2023-04-15T00:51:37.268Z,91.12
2023-04-15T00:54:05.141Z,92.26
2023-04-15T00:56:36.213Z,91.67
2023-04-15T00:59:04.037Z,92.21
2023-04-15T01:01:33.197Z,93.22
2023-04-15T01:04:00.589Z,92.52
2023-04-15T01:06:28.598Z,91.44
2023-04-15T01:08:58.759Z,92.68
2023-04-15T01:11:26.969Z,91.93
2023-04-15T01:13:55.810Z,90.66
2023-04-15T01:16:23.168Z,91.01
2023-04-15T01:18:50.918Z,90.86
2023-04-15T01:21:19.653Z,91.01
2023-04-15T01:23:48.609Z,91.21
2023-04-15T01:26:17.626Z,90.56
2023-04-15T01:28:45.212Z,91.20
2023-04-15T01:31:14.120Z,91.99
2023-04-15T01:33:43.511Z,91.83
2023-04-15T01:36:11.160Z,90.80
2023-04-15T01:38:39.209Z,89.75
2023-04-15T01:41:08.242Z,90.74
2023-04-15T01:43:39.791Z,91.22
2023-04-15T01:46:07.384Z,89.83
2023-04-15T01:48:34.851Z,90.04
2023-04-15T01:51:02.393Z,89.99
2023-04-15T01:53:30.406Z,89.80
2023-04-15T01:55:57.771Z,89.80
2023-04-15T01:58:25.197Z,90.28
2023-04-15T02:00:54.409Z,92.19
2023-04-15T02:03:22.126Z,91.85
2023-04-15T02:05:49.667Z,90.70
2023-04-15T02:08:17.038Z,90.55
2023-04-15T02:10:44.442Z,91.53
2023-04-15T02:13:11.762Z,90.79
2023-04-15T02:15:39.002Z,92.29
2023-04-15T02:18:07.719Z,91.49
2023-04-15T02:20:36.636Z,92.40
2023-04-15T02:23:07.512Z,92.81
2023-04-15T02:25:34.806Z,92.39
2023-04-15T02:28:02.309Z,92.20
2023-04-15T02:30:29.752Z,91.89
2023-04-15T02:32:57.095Z,91.80
2023-04-15T02:35:26.116Z,91.82
2023-04-15T02:37:53.452Z,91.76
2023-04-15T02:40:21.068Z,92.85
2023-04-15T02:42:48.596Z,93.23
2023-04-15T02:45:15.898Z,91.58
2023-04-15T02:47:44.061Z,91.60
2023-04-15T02:50:13.340Z,92.84
2023-04-15T02:52:42.723Z,92.75
2023-04-15T02:55:10.328Z,91.22
2023-04-15T02:57:39.060Z,91.58
2023-04-15T03:00:09.955Z,91.80
2023-04-15T03:02:38.138Z,92.51
2023-04-15T03:05:07.337Z,92.85
2023-04-15T03:07:34.613Z,92.26
2023-04-15T03:10:03.669Z,92.82
2023-04-15T03:12:31.208Z,91.64
2023-04-15T03:14:58.584Z,91.71
2023-04-15T03:17:26.047Z,91.52
2023-04-15T03:19:53.674Z,91.59
2023-04-15T03:22:21.128Z,91.36
2023-04-15T03:24:48.415Z,90.98
2023-04-15T03:27:16.996Z,90.82
2023-04-15T03:29:44.306Z,91.82
2023-04-15T03:32:31.996Z,91.28
2023-04-15T03:34:59.448Z,91.91
2023-04-15T03:37:26.758Z,92.93
2023-04-15T03:39:53.987Z,92.16
2023-04-15T03:42:22.654Z,92.07
2023-04-15T03:44:50.025Z,90.83
2023-04-15T03:47:17.419Z,91.21
2023-04-15T03:49:44.905Z,90.58
2023-04-15T03:52:12.700Z,91.59
2023-04-15T03:54:39.983Z,92.00
2023-04-15T03:57:07.276Z,91.89
2023-04-15T03:59:36.035Z,91.41
2023-04-15T04:02:03.412Z,91.40
2023-04-15T04:04:31.141Z,91.18
2023-04-15T04:06:58.460Z,92.02
2023-04-15T04:09:26.049Z,91.15
2023-04-15T04:11:53.270Z,91.46
2023-04-15T04:14:20.716Z,91.92
2023-04-15T04:16:49.457Z,92.80
2023-04-15T04:19:19.695Z,92.68
2023-04-15T04:21:47.204Z,92.86
2023-04-15T04:24:14.694Z,91.88
2023-04-15T04:26:41.858Z,92.99
2023-04-15T04:29:09.382Z,93.27
2023-04-15T04:31:37.274Z,93.62
2023-04-15T04:34:06.270Z,91.91
2023-04-15T04:36:33.516Z,90.80
2023-04-15T04:39:01.661Z,91.14
2023-04-15T04:41:29.024Z,91.54
2023-04-15T04:43:56.609Z,91.13
2023-04-15T04:46:24.024Z,90.97
2023-04-15T04:48:51.976Z,91.01
2023-04-15T04:51:20.923Z,90.82
2023-04-15T04:53:48.206Z,91.02
2023-04-15T04:56:15.631Z,91.34
2023-04-15T04:58:42.986Z,91.87
2023-04-15T05:01:10.235Z,90.57
2023-04-15T05:03:38.395Z,90.35
2023-04-15T05:06:08.926Z,90.75
2023-04-15T05:08:39.897Z,90.00
2023-04-15T05:11:07.693Z,90.56
2023-04-15T05:13:34.940Z,90.25
2023-04-15T05:16:02.307Z,90.13
2023-04-15T05:18:29.854Z,91.03
2023-04-15T05:20:57.576Z,90.71
2023-04-15T05:23:25.607Z,90.70
2023-04-15T05:25:54.268Z,90.74
2023-04-15T05:28:22.027Z,90.54
2023-04-15T05:30:49.401Z,89.72
2023-04-15T05:33:16.756Z,90.22
2023-04-15T05:35:44.109Z,90.82
2023-04-15T05:38:11.491Z,90.13
2023-04-15T05:40:39.048Z,90.19
2023-04-15T05:43:07.694Z,91.05
2023-04-15T05:45:34.927Z,90.48
2023-04-15T05:48:02.408Z,90.37
2023-04-15T05:50:29.820Z,90.68
2023-04-15T05:52:57.357Z,89.77
2023-04-15T05:55:24.882Z,90.16
2023-04-15T05:57:52.405Z,89.66
2023-04-15T06:00:21.721Z,89.57
2023-04-15T06:02:49.227Z,90.54
2023-04-15T06:05:16.624Z,91.89
2023-04-15T06:07:45.582Z,90.42
2023-04-15T06:10:14.494Z,90.22
2023-04-15T06:12:41.716Z,90.46
2023-04-15T06:15:10.548Z,90.26
2023-04-15T06:17:39.278Z,89.55
2023-04-15T06:20:08.620Z,89.40
2023-04-15T06:22:37.784Z,89.62
2023-04-15T06:25:06.321Z,89.92
2023-04-15T06:27:33.731Z,90.35
2023-04-15T06:30:01.029Z,90.20
2023-04-15T06:32:28.496Z,90.34
2023-04-15T06:34:57.223Z,89.79
2023-04-15T06:37:24.589Z,89.91
2023-04-15T06:39:51.833Z,89.52
2023-04-15T06:42:19.269Z,89.44
2023-04-15T06:44:46.740Z,88.08
2023-04-15T06:47:14.873Z,88.88
2023-04-15T06:49:43.249Z,89.20
2023-04-15T06:52:13.042Z,88.64
2023-04-15T06:54:40.295Z,88.08
2023-04-15T06:57:07.931Z,88.75
2023-04-15T06:59:35.404Z,87.42
2023-04-15T07:02:02.733Z,87.85
2023-04-15T07:04:29.995Z,87.48
2023-04-15T07:06:57.498Z,87.78
2023-04-15T07:09:26.780Z,87.50
2023-04-15T07:11:54.030Z,87.61
2023-04-15T07:14:21.594Z,88.25
2023-04-15T07:16:48.848Z,87.93
2023-04-15T07:19:16.247Z,87.73
2023-04-15T07:21:43.683Z,87.70
2023-04-15T07:24:11.295Z,87.63
2023-04-15T07:26:40.548Z,87.66
2023-04-15T07:29:08.002Z,87.25
2023-04-15T07:31:37.143Z,87.73
2023-04-15T07:34:05.271Z,87.52
2023-04-15T07:36:32.695Z,88.12
2023-04-15T07:39:02.343Z,88.10
2023-04-15T07:41:30.319Z,87.69
2023-04-15T07:43:59.222Z,86.73
2023-04-15T07:46:27.647Z,87.08
2023-04-15T07:48:54.892Z,87.57
2023-04-15T07:51:22.301Z,87.12
2023-04-15T07:53:50.659Z,87.56
2023-04-15T07:56:17.974Z,88.06
2023-04-15T07:58:45.179Z,87.63
2023-04-15T08:01:14.119Z,87.07
2023-04-15T08:03:42.245Z,86.66
2023-04-15T08:06:09.758Z,87.14
2023-04-15T08:08:37.639Z,86.83
2023-04-15T08:11:05.664Z,87.02
2023-04-15T08:13:33.077Z,87.07
2023-04-15T08:16:21.384Z,86.32
2023-04-15T08:18:49.966Z,87.00
2023-04-15T08:21:18.839Z,86.03
2023-04-15T08:23:47.533Z,84.95
2023-04-15T08:26:14.936Z,85.18
2023-04-15T08:28:45.716Z,85.10
2023-04-15T08:31:13.564Z,85.52
2023-04-15T08:33:42.357Z,83.61
2023-04-15T08:36:09.750Z,82.89
2023-04-15T08:38:37.462Z,83.25
2023-04-15T08:41:11.972Z,84.12
2023-04-15T08:43:47.712Z,83.56
2023-04-15T08:46:16.791Z,84.26
2023-04-15T08:48:47.818Z,83.15
2023-04-15T08:51:16.299Z,84.29
2023-04-15T08:53:44.586Z,83.89
2023-04-15T08:56:14.380Z,85.05
2023-04-15T08:58:42.266Z,84.64
2023-04-15T09:01:10.232Z,84.78
2023-04-15T09:03:37.975Z,84.75
2023-04-15T09:06:07.215Z,84.56
2023-04-15T09:08:37.756Z,85.58
2023-04-15T09:11:05.309Z,85.30
2023-04-15T09:13:32.724Z,84.24
2023-04-15T09:16:03.741Z,84.74
2023-04-15T09:18:32.824Z,85.08
2023-04-15T09:21:08.994Z,85.12
2023-04-15T09:23:37.050Z,86.05
2023-04-15T09:26:05.731Z,85.13
2023-04-15T09:28:33.162Z,84.34
2023-04-15T09:31:02.790Z,84.64
2023-04-15T09:33:30.819Z,83.97
2023-04-15T09:36:00.472Z,83.83
2023-04-15T09:38:29.160Z,84.18
2023-04-15T09:40:56.497Z,83.90
2023-04-15T09:43:37.054Z,83.45
2023-04-15T09:46:04.278Z,83.44
2023-04-15T09:48:31.656Z,81.46
2023-04-15T09:51:00.735Z,81.16
2023-04-15T09:53:31.718Z,82.06
2023-04-15T09:56:03.544Z,82.23
2023-04-15T09:58:31.964Z,80.40
2023-04-15T10:01:00.681Z,79.92
2023-04-15T10:03:29.774Z,78.48
2023-04-15T10:05:58.440Z,79.07
2023-04-15T10:08:28.334Z,78.99
2023-04-15T10:10:57.831Z,80.79
2023-04-15T10:13:28.525Z,78.68
2023-04-15T10:15:58.495Z,78.05
2023-04-15T10:18:27.457Z,77.26
2023-04-15T10:20:55.774Z,77.92
2023-04-15T10:23:24.594Z,76.74
2023-04-15T10:25:54.476Z,76.88
2023-04-15T10:28:23.334Z,76.71
2023-04-15T10:30:52.164Z,77.37
2023-04-15T10:33:22.742Z,77.39
2023-04-15T10:35:51.894Z,76.62
2023-04-15T10:38:36.631Z,76.28
2023-04-15T10:41:15.809Z,77.75
2023-04-15T10:43:53.638Z,77.06
2023-04-15T10:46:35.390Z,75.21
2023-04-15T10:49:08.045Z,72.46
2023-04-15T10:51:41.738Z,74.32
2023-04-15T10:54:13.450Z,74.92
2023-04-15T10:56:42.203Z,77.27
2023-04-15T10:59:11.017Z,76.82
2023-04-15T11:01:52.316Z,77.68
2023-04-15T11:04:53.733Z,78.92
2023-04-15T11:07:50.644Z,81.19
2023-04-15T11:10:51.973Z,81.91
2023-04-15T11:13:27.266Z,80.53
2023-04-15T11:16:05.376Z,82.52
2023-04-15T11:18:34.709Z,80.84
2023-04-15T11:21:06.416Z,79.94
2023-04-15T11:23:39.525Z,79.80
2023-04-15T11:26:11.822Z,78.36
2023-04-15T11:28:41.728Z,73.97
2023-04-15T11:31:12.229Z,75.55
2023-04-15T11:33:46.983Z,75.56
2023-04-15T11:36:14.480Z,79.58
2023-04-15T11:38:47.520Z,79.01
2023-04-15T11:41:14.905Z,78.55
2023-04-15T11:43:42.557Z,77.38
2023-04-15T11:46:11.179Z,80.05
2023-04-15T11:48:43.632Z,79.90
2023-04-15T11:51:12.830Z,82.31
2023-04-15T11:53:41.995Z,83.83
2023-04-15T11:56:10.884Z,84.49
2023-04-15T11:58:39.400Z,84.50
2023-04-15T12:01:07.476Z,83.67
2023-04-15T12:03:41.010Z,83.46
2023-04-15T12:06:12.610Z,83.47
2023-04-15T12:09:10.279Z,85.47
2023-04-15T12:11:40.536Z,84.77
2023-04-15T12:14:10.843Z,81.43
2023-04-15T12:16:48.989Z,79.81
2023-04-15T12:19:22.848Z,79.46
2023-04-15T12:21:50.408Z,77.62
2023-04-15T12:24:23.113Z,78.41
2023-04-15T12:26:52.045Z,78.85
2023-04-15T12:29:19.953Z,77.58
2023-04-15T12:31:51.740Z,73.82
2023-04-15T12:34:28.009Z,73.77
2023-04-15T12:36:55.470Z,71.38
2023-04-15T12:39:24.371Z,70.35
2023-04-15T12:41:51.787Z,73.93
2023-04-15T12:44:19.389Z,69.53
2023-04-15T12:46:46.955Z,64.15
2023-04-15T12:49:20.018Z,64.61
2023-04-15T12:51:49.476Z,66.53
2023-04-15T12:54:17.075Z,66.27
2023-04-15T12:56:46.667Z,69.59
2023-04-15T12:59:14.213Z,66.84
2023-04-15T13:01:41.553Z,66.24
2023-04-15T13:04:09.438Z,63.11
2023-04-15T13:06:37.187Z,64.63
2023-04-15T13:09:06.712Z,66.66
2023-04-15T13:11:34.679Z,65.98
2023-04-15T13:14:02.925Z,68.65
2023-04-15T13:16:30.802Z,70.02
2023-04-15T13:18:58.116Z,67.75
2023-04-15T13:21:25.610Z,67.54
2023-04-15T13:23:52.891Z,69.67
2023-04-15T13:26:21.969Z,69.37
2023-04-15T13:28:49.393Z,71.75
2023-04-15T13:31:16.725Z,69.91
2023-04-15T13:33:43.988Z,72.64
2023-04-15T13:36:11.389Z,72.80
2023-04-15T13:38:38.735Z,73.30
2023-04-15T13:41:06.353Z,76.21
2023-04-15T13:43:35.054Z,76.31
2023-04-15T13:46:02.764Z,73.36
2023-04-15T13:48:30.170Z,71.05
2023-04-15T13:50:57.615Z,67.86
2023-04-15T13:53:28.196Z,70.49
2023-04-15T13:56:06.582Z,69.28
2023-04-15T13:58:35.684Z,68.71
2023-04-15T14:01:05.788Z,72.76
2023-04-15T14:03:34.933Z,74.08
2023-04-15T14:06:02.482Z,74.42
2023-04-15T14:08:30.657Z,73.39
2023-04-15T14:10:58.168Z,73.23
2023-04-15T14:13:25.417Z,71.61
2023-04-15T14:15:54.100Z,74.12
2023-04-15T14:18:21.354Z,75.89
2023-04-15T14:20:48.712Z,73.64
2023-04-15T14:23:16.300Z,73.91
2023-04-15T14:25:45.018Z,72.85
2023-04-15T14:28:13.523Z,74.45
2023-04-15T14:30:40.950Z,74.20
2023-04-15T14:33:09.921Z,74.76
2023-04-15T14:35:38.030Z,74.20
2023-04-15T14:38:08.252Z,72.73
2023-04-15T14:40:35.438Z,76.77
2023-04-15T14:43:02.695Z,75.94
2023-04-15T14:45:30.565Z,75.46
2023-04-15T14:47:58.008Z,76.00
2023-04-15T14:50:26.676Z,77.36
2023-04-15T14:52:53.962Z,78.04
2023-04-15T14:55:21.461Z,76.62
2023-04-15T14:57:48.750Z,75.70
2023-04-15T15:00:16.502Z,74.13
2023-04-15T15:02:44.103Z,73.71
2023-04-15T15:05:12.309Z,76.42
2023-04-15T15:07:41.253Z,76.13
2023-04-15T15:10:08.866Z,75.05
2023-04-15T15:12:36.399Z,74.33
2023-04-15T15:15:12.460Z,75.90
2023-04-15T15:17:43.537Z,72.37
2023-04-15T15:20:11.510Z,73.37
2023-04-15T15:22:40.301Z,73.99
2023-04-15T15:25:07.756Z,73.72
2023-04-15T15:27:37.705Z,73.34
2023-04-15T15:30:07.049Z,75.50
2023-04-15T15:32:34.752Z,74.36
2023-04-15T15:35:02.187Z,75.59
2023-04-15T15:37:30.693Z,75.84
2023-04-15T15:40:00.924Z,75.93
2023-04-15T15:42:31.571Z,76.19
2023-04-15T15:44:58.812Z,74.08
2023-04-15T15:47:27.005Z,74.74
2023-04-15T15:49:54.997Z,73.12
2023-04-15T15:52:22.656Z,76.62
2023-04-15T15:54:49.843Z,75.84
2023-04-15T15:57:18.455Z,77.57
2023-04-15T15:59:46.445Z,79.29
2023-04-15T16:02:14.523Z,78.89
2023-04-15T16:04:43.490Z,77.49
2023-04-15T16:07:14.645Z,77.54
2023-04-15T16:09:42.770Z,80.06
2023-04-15T16:12:10.615Z,77.58
2023-04-15T16:14:39.514Z,77.96
2023-04-15T16:17:06.843Z,79.02
2023-04-15T16:19:33.989Z,79.84
2023-04-15T16:22:01.877Z,80.98
2023-04-15T16:24:29.935Z,78.03
2023-04-15T16:26:59.442Z,79.70
2023-04-15T16:29:26.975Z,81.70
2023-04-15T16:31:56.413Z,79.37
2023-04-15T16:34:23.853Z,79.90
2023-04-15T16:36:51.076Z,79.51
2023-04-15T16:39:19.866Z,79.12
2023-04-15T16:41:47.063Z,81.59
2023-04-15T16:44:14.529Z,82.69
2023-04-15T16:46:41.941Z,82.05
2023-04-15T16:49:11.605Z,79.84
2023-04-15T16:51:38.874Z,80.96
2023-04-15T16:54:06.480Z,82.35
2023-04-15T16:56:33.685Z,83.51
2023-04-15T16:59:01.524Z,83.04
2023-04-15T17:01:29.625Z,83.32
2023-04-15T17:03:57.040Z,83.55
2023-04-15T17:06:26.823Z,82.88
2023-04-15T17:08:54.397Z,82.80
2023-04-15T17:11:22.398Z,83.51
2023-04-15T17:13:50.988Z,83.40
2023-04-15T17:16:18.472Z,84.69
2023-04-15T17:18:47.492Z,84.82
2023-04-15T17:21:16.693Z,85.05
2023-04-15T17:23:45.515Z,84.32
2023-04-15T17:26:12.980Z,85.65
2023-04-15T17:28:40.434Z,84.16
2023-04-15T17:31:07.929Z,84.36
2023-04-15T17:33:55.952Z,84.62
2023-04-15T17:36:23.474Z,84.88
2023-04-15T17:38:54.215Z,85.16
2023-04-15T17:41:21.436Z,84.97
2023-04-15T17:43:48.937Z,85.42
2023-04-15T17:46:16.542Z,85.08
2023-04-15T17:48:44.084Z,84.84
2023-04-15T17:51:12.927Z,86.40
2023-04-15T17:53:40.691Z,86.01
2023-04-15T17:56:09.594Z,85.93
2023-04-15T17:58:39.252Z,86.24
2023-04-15T18:01:06.922Z,85.05
2023-04-15T18:03:34.610Z,87.37
2023-04-15T18:06:02.143Z,87.07
2023-04-15T18:08:29.513Z,88.00
2023-04-15T18:10:56.736Z,85.19
2023-04-15T18:13:25.460Z,86.97
2023-04-15T18:15:53.280Z,88.31
2023-04-15T18:18:21.017Z,88.07
2023-04-15T18:20:48.466Z,87.02
2023-04-15T18:23:15.696Z,86.05
2023-04-15T18:25:43.847Z,85.54
2023-04-15T18:28:11.434Z,86.06
2023-04-15T18:30:40.634Z,86.01
2023-04-15T18:33:08.091Z,85.61
2023-04-15T18:35:36.594Z,85.38
2023-04-15T18:38:05.131Z,86.12
2023-04-15T18:40:32.518Z,87.29
2023-04-15T18:43:00.262Z,87.62
2023-04-15T18:45:27.840Z,88.02
2023-04-15T18:47:56.870Z,87.31
2023-04-15T18:50:24.465Z,87.17
2023-04-15T18:52:52.075Z,88.29
2023-04-15T18:55:19.625Z,87.77
2023-04-15T18:57:48.599Z,88.53
2023-04-15T19:00:17.352Z,88.85
2023-04-15T19:02:45.143Z,88.44
2023-04-15T19:05:14.376Z,88.64
2023-04-15T19:07:42.002Z,87.73
2023-04-15T19:10:10.498Z,85.94
2023-04-15T19:12:37.855Z,85.71
2023-04-15T19:15:06.666Z,85.23
2023-04-15T19:17:33.917Z,85.94
2023-04-15T19:20:01.176Z,86.84
2023-04-15T19:22:31.088Z,84.06
2023-04-15T19:24:58.866Z,83.99
2023-04-15T19:27:27.370Z,84.21
2023-04-15T19:29:54.988Z,84.45
2023-04-15T19:32:22.667Z,84.20
2023-04-15T19:34:50.192Z,84.80
2023-04-15T19:37:18.012Z,84.79
2023-04-15T19:39:47.099Z,84.72
2023-04-15T19:42:14.706Z,84.68
2023-04-15T19:44:42.973Z,83.26
2023-04-15T19:47:11.175Z,83.60
2023-04-15T19:49:38.857Z,83.58
2023-04-15T19:52:06.387Z,83.28
2023-04-15T19:54:34.119Z,84.17
2023-04-15T19:57:02.750Z,83.64
2023-04-15T19:59:30.384Z,83.00
2023-04-15T20:01:58.022Z,84.87
2023-04-15T20:04:26.112Z,84.50
2023-04-15T20:06:53.860Z,83.23
2023-04-15T20:09:21.435Z,82.80
2023-04-15T20:12:46.058Z,83.74
2023-04-15T20:14:37.893Z,84.54
2023-04-15T20:17:05.512Z,84.61
2023-04-15T20:19:32.979Z,85.32
2023-04-15T20:22:00.736Z,84.31
2023-04-15T20:24:28.240Z,84.91
2023-04-15T20:26:57.637Z,85.23
2023-04-15T20:29:25.154Z,83.72
2023-04-15T20:31:54.268Z,83.66
2023-04-15T20:34:21.857Z,83.41
2023-04-15T20:36:49.308Z,83.76
2023-04-15T20:39:18.169Z,83.88
2023-04-15T20:41:46.087Z,84.47
2023-04-15T20:44:13.428Z,84.81
2023-04-15T20:46:41.276Z,85.03
2023-04-15T20:49:10.086Z,83.81
2023-04-15T20:51:38.132Z,83.77
2023-04-15T20:54:06.378Z,84.68
2023-04-15T20:56:34.018Z,86.24
2023-04-15T20:59:01.796Z,87.77
2023-04-15T21:01:29.265Z,87.40
2023-04-15T21:03:56.551Z,86.80
2023-04-15T21:06:27.183Z,86.43
2023-04-15T21:08:54.643Z,85.00
2023-04-15T21:11:43.073Z,85.05
2023-04-15T21:14:09.973Z,85.67
2023-04-15T21:16:37.183Z,86.43
2023-04-15T21:19:04.683Z,86.92
2023-04-15T21:21:34.073Z,88.29
2023-04-15T21:24:01.327Z,88.79
2023-04-15T21:26:28.537Z,88.50
2023-04-15T21:28:56.445Z,89.21
2023-04-15T21:31:23.770Z,89.48
2023-04-15T21:33:51.246Z,88.24
2023-04-15T21:36:18.458Z,88.52
2023-04-15T21:38:47.094Z,88.84
2023-04-15T21:41:14.618Z,88.66
2023-04-15T21:43:41.784Z,89.41
2023-04-15T21:46:21.822Z,89.51
2023-04-15T21:48:52.770Z,89.41
2023-04-15T21:51:21.940Z,89.53
2023-04-15T21:53:50.793Z,89.55
2023-04-15T21:56:17.985Z,89.25
2023-04-15T21:58:45.190Z,89.82
2023-04-15T22:01:12.445Z,88.78
2023-04-15T22:03:40.120Z,88.37
2023-04-15T22:06:07.572Z,88.69
2023-04-15T22:08:41.736Z,89.62
2023-04-15T22:11:28.497Z,89.24
2023-04-15T22:13:57.433Z,87.92
2023-04-15T22:16:25.369Z,87.96
2023-04-15T22:18:52.824Z,88.83
2023-04-15T22:21:20.034Z,89.61
2023-04-15T22:23:49.121Z,89.69
2023-04-15T22:26:16.354Z,89.83
2023-04-15T22:28:45.615Z,89.47
2023-04-15T22:31:13.845Z,89.20
2023-04-15T22:33:41.510Z,90.01
2023-04-15T22:36:08.781Z,90.14
2023-04-15T22:38:36.190Z,88.75
2023-04-15T22:41:03.483Z,88.60
2023-04-15T22:43:30.899Z,87.71
2023-04-15T22:46:00.424Z,89.70
2023-04-15T22:48:27.808Z,90.44
2023-04-15T22:50:56.038Z,89.57
2023-04-15T22:53:23.302Z,90.38
2023-04-15T22:55:51.833Z,90.01
2023-04-15T22:58:19.024Z,89.60
2023-04-15T23:00:46.473Z,90.47
2023-04-15T23:03:15.306Z,89.88
2023-04-15T23:05:42.701Z,90.01
2023-04-15T23:08:10.146Z,91.16
2023-04-15T23:10:40.096Z,90.47
2023-04-15T23:13:07.345Z,90.46
2023-04-15T23:15:34.516Z,90.82
2023-04-15T23:18:02.565Z,90.64
2023-04-15T23:20:31.184Z,90.91
2023-04-15T23:22:58.360Z,89.72
2023-04-15T23:25:25.555Z,89.38
2023-04-15T23:27:52.875Z,89.22
2023-04-15T23:30:20.078Z,90.98
2023-04-15T23:32:47.324Z,91.47
2023-04-15T23:35:14.865Z,91.78
2023-04-15T23:37:43.485Z,91.89
2023-04-15T23:40:12.237Z,91.17
2023-04-15T23:42:39.521Z,91.22
2023-04-15T23:45:07.942Z,91.40
2023-04-15T23:47:35.263Z,91.51
2023-04-15T23:50:02.503Z,91.30
2023-04-15T23:52:29.831Z,90.36
2023-04-15T23:54:58.741Z,90.87
2023-04-15T23:57:26.007Z,90.08
2023-04-15T23:59:53.462Z,89.78
